Time;durP1;ratioP1;P1;durP2;ratioP2;P2;SDS_P1;SDS_P2;PMS_P1;PMS_P2;Temp;Humidity;BMP_temperature;BMP_pressure;BME280_temperature;BME280_humidity;BME280_pressure;Samples;Min_cycle;Max_cycle;Signal;HPM_P1;HPM_P2
2021/04/10 00:01:33;;;;;;;1.23;0.47;;;12.40;92.10;;;;;;5094850;28;20473;-59
2021/04/10 00:03:59;;;;;;;1.40;0.40;;;12.30;92.30;;;;;;5094631;28;20501;-59
2021/04/10 00:06:26;;;;;;;1.20;0.50;;;12.30;92.40;;;;;;5094150;28;20520;-59
2021/04/10 00:08:52;;;;;;;1.30;0.80;;;12.30;92.20;;;;;;5093809;28;20437;-58
2021/04/10 00:11:19;;;;;;;1.20;0.40;;;12.20;92.10;;;;;;5093176;28;20520;-59
2021/04/10 00:13:45;;;;;;;0.60;0.40;;;12.20;92.30;;;;;;5094494;28;20625;-58
2021/04/10 00:16:12;;;;;;;1.20;0.40;;;12.20;92.60;;;;;;5095439;28;20422;-58
2021/04/10 00:18:39;;;;;;;0.80;0.50;;;12.30;93.10;;;;;;5095783;28;20414;-58
2021/04/10 00:21:06;;;;;;;0.90;0.50;;;12.30;92.80;;;;;;5095799;28;20465;-59
2021/04/10 00:23:32;;;;;;;0.70;0.40;;;12.30;93.00;;;;;;5095270;28;20729;-59
2021/04/10 00:25:58;;;;;;;1.50;0.40;;;12.20;92.80;;;;;;5095248;28;20503;-58
2021/04/10 00:28:25;;;;;;;0.80;0.40;;;12.20;92.50;;;;;;5095690;28;20516;-59
2021/04/10 00:30:51;;;;;;;1.08;0.50;;;12.20;92.40;;;;;;5094411;28;20541;-59
2021/04/10 00:33:18;;;;;;;0.73;0.40;;;12.20;92.60;;;;;;5092597;28;20510;-59
2021/04/10 00:35:45;;;;;;;1.80;0.40;;;12.20;92.50;;;;;;5094042;28;20774;-59
2021/04/10 00:38:11;;;;;;;1.20;0.40;;;12.30;92.60;;;;;;5093968;28;20792;-59
2021/04/10 00:40:38;;;;;;;0.90;0.40;;;12.40;92.70;;;;;;5094111;28;20418;-59
2021/04/10 00:43:04;;;;;;;1.60;0.40;;;12.40;92.70;;;;;;5092497;28;20737;-59
2021/04/10 00:45:30;;;;;;;0.80;0.40;;;12.40;92.80;;;;;;5093015;28;20418;-59
2021/04/10 00:47:57;;;;;;;0.88;0.40;;;12.40;92.80;;;;;;5092235;28;21119;-59
2021/04/10 00:50:23;;;;;;;0.70;0.35;;;12.40;92.80;;;;;;5092519;28;20441;-59
2021/04/10 00:52:50;;;;;;;0.50;0.32;;;12.40;92.80;;;;;;5092445;28;20517;-59
2021/04/10 00:55:17;;;;;;;0.70;0.40;;;12.50;92.60;;;;;;5090563;28;20445;-59
2021/04/10 00:57:43;;;;;;;0.68;0.40;;;12.60;92.20;;;;;;5089597;28;20461;-59
2021/04/10 01:00:10;;;;;;;0.50;0.30;;;12.60;92.20;;;;;;5091413;28;20838;-58
2021/04/10 01:02:37;;;;;;;0.50;0.30;;;12.70;91.90;;;;;;5091179;28;20524;-60
2021/04/10 01:05:05;;;;;;;1.20;0.40;;;12.70;91.80;;;;;;5091676;28;20567;-58
2021/04/10 01:07:32;;;;;;;0.60;0.30;;;12.60;92.00;;;;;;5091471;28;20491;-58
2021/04/10 01:10:00;;;;;;;0.70;0.38;;;12.60;92.10;;;;;;5093029;28;20546;-58
2021/04/10 01:12:46;;;;;;;0.60;0.30;;;12.60;92.00;;;;;;5093964;28;20871;-59
2021/04/10 01:15:22;;;;;;;1.60;0.40;;;12.70;91.70;;;;;;5093330;28;20418;-59
2021/04/10 01:17:54;;;;;;;1.30;0.30;;;12.70;91.70;;;;;;5094370;28;20461;-58
2021/04/10 01:20:44;;;;;;;2.17;0.40;;;12.70;91.80;;;;;;5093623;28;20476;-61
2021/04/10 01:23:28;;;;;;;2.17;0.40;;;12.80;91.70;;;;;;5094866;28;20501;-61
2021/04/10 01:26:10;;;;;;;1.20;0.40;;;12.80;91.50;;;;;;5093169;28;20425;-59
2021/04/10 01:28:54;;;;;;;0.60;0.30;;;12.90;91.80;;;;;;5093597;28;20567;-59
2021/04/10 01:31:26;;;;;;;1.63;0.40;;;12.90;91.70;;;;;;5092949;28;20779;-59
2021/04/10 01:33:58;;;;;;;0.65;0.30;;;12.80;91.70;;;;;;5093701;28;20421;-59
2021/04/10 01:36:29;;;;;;;0.50;0.30;;;12.80;91.70;;;;;;5094170;28;20457;-59
2021/04/10 01:38:57;;;;;;;0.88;0.40;;;12.80;91.90;;;;;;5094003;28;20484;-59
2021/04/10 01:41:24;;;;;;;0.80;0.30;;;12.80;91.70;;;;;;5093330;28;20717;-59
2021/04/10 01:43:53;;;;;;;1.40;0.30;;;12.80;91.80;;;;;;5093609;28;20790;-61
2021/04/10 01:46:23;;;;;;;0.40;0.30;;;12.80;92.40;;;;;;5095979;28;20517;-59
2021/04/10 01:48:50;;;;;;;0.80;0.30;;;12.80;92.00;;;;;;5097460;28;20542;-59
2021/04/10 01:51:18;;;;;;;0.60;0.30;;;12.80;92.00;;;;;;5097214;28;20904;-61
2021/04/10 01:53:45;;;;;;;0.50;0.30;;;12.70;92.00;;;;;;5097217;28;20801;-60
2021/04/10 01:56:12;;;;;;;1.40;0.40;;;12.70;92.20;;;;;;5097960;28;20461;-60
2021/04/10 01:58:42;;;;;;;1.80;0.40;;;12.70;92.50;;;;;;5097817;28;20414;-60
2021/04/10 02:01:11;;;;;;;0.80;0.30;;;12.70;92.50;;;;;;5097434;28;20516;-60
2021/04/10 02:03:40;;;;;;;1.00;0.30;;;12.70;92.50;;;;;;5096998;28;20486;-60
2021/04/10 02:06:09;;;;;;;0.50;0.30;;;12.70;92.70;;;;;;5096877;28;20459;-60
2021/04/10 02:08:36;;;;;;;0.60;0.30;;;12.70;92.80;;;;;;5097562;28;20841;-60
2021/04/10 02:11:03;;;;;;;2.60;0.30;;;12.60;92.80;;;;;;5096683;28;20465;-60
2021/04/10 02:13:31;;;;;;;2.10;0.30;;;12.60;93.10;;;;;;5097098;28;20834;-60
2021/04/10 02:15:58;;;;;;;0.70;0.30;;;12.60;93.10;;;;;;5097909;28;20822;-60
2021/04/10 02:18:26;;;;;;;0.80;0.30;;;12.50;93.30;;;;;;5096918;28;20798;-60
2021/04/10 02:20:54;;;;;;;0.50;0.30;;;12.50;93.30;;;;;;5096898;28;20446;-61
2021/04/10 02:23:21;;;;;;;0.57;0.30;;;12.50;93.50;;;;;;5096540;28;20733;-60
2021/04/10 02:25:47;;;;;;;1.02;0.30;;;12.50;93.60;;;;;;5096596;28;20417;-60
2021/04/10 02:28:14;;;;;;;0.70;0.30;;;12.50;93.80;;;;;;5096452;28;20861;-60
2021/04/10 02:30:41;;;;;;;0.60;0.30;;;12.50;94.00;;;;;;5096475;28;20771;-60
2021/04/10 02:33:12;;;;;;;0.60;0.30;;;12.50;94.10;;;;;;5097006;28;20421;-60
2021/04/10 02:35:43;;;;;;;0.50;0.30;;;12.40;94.20;;;;;;5097101;28;20509;-60
2021/04/10 02:38:11;;;;;;;2.60;0.40;;;12.40;94.40;;;;;;5095892;28;20837;-60
2021/04/10 02:40:41;;;;;;;0.60;0.30;;;12.30;94.40;;;;;;5096195;28;20765;-60
2021/04/10 02:43:11;;;;;;;1.20;0.40;;;12.40;94.70;;;;;;5096684;28;20512;-60
2021/04/10 02:45:38;;;;;;;0.93;0.30;;;12.30;94.80;;;;;;5097243;28;20655;-60
2021/04/10 02:48:08;;;;;;;0.70;0.30;;;12.30;94.90;;;;;;5095868;28;20469;-60
2021/04/10 02:50:38;;;;;;;0.90;0.30;;;12.30;95.00;;;;;;5096150;28;20736;-60
2021/04/10 02:53:07;;;;;;;1.20;0.30;;;12.40;95.30;;;;;;5096698;28;20429;-60
2021/04/10 02:55:38;;;;;;;0.47;0.30;;;12.30;95.20;;;;;;5097321;28;20451;-60
2021/04/10 02:58:08;;;;;;;1.00;0.30;;;12.30;95.40;;;;;;5095207;28;20913;-60
2021/04/10 03:00:36;;;;;;;0.70;0.30;;;12.30;95.50;;;;;;5095802;28;20522;-60
2021/04/10 03:03:03;;;;;;;1.00;0.30;;;12.20;95.60;;;;;;5096187;28;20430;-60
2021/04/10 03:05:31;;;;;;;0.60;0.20;;;12.20;95.70;;;;;;5096188;28;20500;-60
2021/04/10 03:07:58;;;;;;;0.60;0.30;;;12.20;95.80;;;;;;5095658;28;20923;-60
2021/04/10 03:10:26;;;;;;;0.75;0.30;;;12.20;96.00;;;;;;5095573;28;20603;-60
2021/04/10 03:12:53;;;;;;;0.60;0.30;;;12.30;96.20;;;;;;5096529;28;20445;-60
2021/04/10 03:15:20;;;;;;;0.60;0.32;;;12.30;96.20;;;;;;5095154;28;20429;-60
2021/04/10 03:17:47;;;;;;;0.50;0.30;;;12.20;96.60;;;;;;5096274;28;20573;-60
2021/04/10 03:20:15;;;;;;;0.60;0.20;;;12.30;96.40;;;;;;5095545;28;20713;-60
2021/04/10 03:22:43;;;;;;;0.75;0.30;;;12.30;97.00;;;;;;5095922;28;20497;-60
2021/04/10 03:25:11;;;;;;;1.40;0.30;;;12.30;97.20;;;;;;5096456;28;20489;-60
2021/04/10 03:27:39;;;;;;;1.70;0.30;;;12.30;97.30;;;;;;5096034;28;20716;-60
2021/04/10 03:30:08;;;;;;;1.65;0.30;;;12.30;97.30;;;;;;5095393;28;20505;-60
2021/04/10 03:32:35;;;;;;;0.82;0.30;;;12.30;97.80;;;;;;5096020;28;20624;-59
2021/04/10 03:35:02;;;;;;;0.70;0.30;;;12.30;97.90;;;;;;5094823;28;20525;-59
2021/04/10 03:37:29;;;;;;;0.75;0.20;;;12.40;98.10;;;;;;5096305;28;20476;-59
2021/04/10 03:39:57;;;;;;;0.60;0.30;;;12.30;98.20;;;;;;5095471;28;20552;-59
2021/04/10 03:42:39;;;;;;;0.60;0.30;;;12.30;98.60;;;;;;5095710;28;20461;-59
2021/04/10 03:45:08;;;;;;;0.50;0.30;;;12.20;99.40;;;;;;5095619;28;20479;-59
2021/04/10 03:47:34;;;;;;;0.40;0.30;;;12.20;99.90;;;;;;5095152;28;20525;-59
2021/04/10 03:50:00;;;;;;;0.50;0.30;;;12.20;99.90;;;;;;5095318;28;21418;-60
2021/04/10 03:52:27;;;;;;;1.00;0.30;;;12.20;99.90;;;;;;5095911;28;20479;-59
2021/04/10 03:54:53;;;;;;;0.55;0.30;;;12.10;99.90;;;;;;5093202;28;20509;-60
2021/04/10 03:57:20;;;;;;;0.50;0.30;;;12.10;99.90;;;;;;5093812;28;20517;-60
2021/04/10 03:59:47;;;;;;;0.40;0.30;;;12.20;99.90;;;;;;5093139;28;20528;-60
2021/04/10 04:02:13;;;;;;;0.40;0.20;;;12.20;99.90;;;;;;5094008;28;20473;-61
2021/04/10 04:04:40;;;;;;;0.50;0.30;;;12.10;99.90;;;;;;5093683;28;20452;-61
2021/04/10 04:07:08;;;;;;;0.57;0.30;;;12.10;99.90;;;;;;5093945;28;20808;-61
2021/04/10 04:09:35;;;;;;;2.30;0.30;;;12.10;99.90;;;;;;5093164;28;20437;-61
2021/04/10 04:12:01;;;;;;;0.70;0.20;;;12.10;99.90;;;;;;5095118;28;20628;-60
2021/04/10 04:14:27;;;;;;;1.10;0.30;;;12.10;99.90;;;;;;5094273;28;20501;-60
2021/04/10 04:16:55;;;;;;;0.60;0.30;;;12.00;99.90;;;;;;5095187;28;20857;-59
2021/04/10 04:19:21;;;;;;;1.30;0.30;;;12.00;99.90;;;;;;5094623;28;20511;-60
2021/04/10 04:21:48;;;;;;;0.60;0.30;;;12.00;99.90;;;;;;5095361;28;20521;-60
2021/04/10 04:24:14;;;;;;;0.60;0.30;;;12.00;99.90;;;;;;5095433;28;20453;-59
2021/04/10 04:26:40;;;;;;;0.60;0.20;;;12.00;99.90;;;;;;5094150;28;20421;-59
2021/04/10 04:29:07;;;;;;;1.00;0.30;;;12.00;99.90;;;;;;5094747;28;20458;-59
2021/04/10 04:31:33;;;;;;;0.45;0.28;;;12.00;99.90;;;;;;5093861;28;20528;-59
2021/04/10 04:34:01;;;;;;;0.70;0.30;;;12.00;99.90;;;;;;5094258;28;20893;-59
2021/04/10 04:36:27;;;;;;;1.00;0.30;;;12.00;99.90;;;;;;5094361;28;20465;-59
2021/04/10 04:38:54;;;;;;;0.60;0.30;;;12.00;99.90;;;;;;5094087;28;20855;-59
2021/04/10 04:41:21;;;;;;;0.60;0.25;;;11.90;99.90;;;;;;5093843;28;20426;-60
2021/04/10 04:43:47;;;;;;;0.60;0.30;;;11.90;99.90;;;;;;5093839;28;20740;-59
2021/04/10 04:46:14;;;;;;;0.50;0.30;;;11.90;99.90;;;;;;5094124;28;20425;-60
2021/04/10 04:48:40;;;;;;;0.88;0.30;;;11.80;99.90;;;;;;5095455;28;20441;-60
2021/04/10 04:51:08;;;;;;;0.40;0.20;;;11.80;99.90;;;;;;5093854;28;20507;-60
2021/04/10 04:53:34;;;;;;;1.90;0.30;;;11.70;99.90;;;;;;5093504;28;20451;-59
2021/04/10 04:56:01;;;;;;;0.50;0.30;;;11.70;99.90;;;;;;5093073;28;20438;-58
2021/04/10 04:58:27;;;;;;;0.90;0.30;;;11.60;99.90;;;;;;5093821;28;20925;-58
2021/04/10 05:00:54;;;;;;;0.80;0.40;;;11.50;99.90;;;;;;5094029;28;20488;-59
2021/04/10 05:03:20;;;;;;;1.10;0.30;;;11.50;99.90;;;;;;5093341;28;20508;-59
2021/04/10 05:05:46;;;;;;;0.60;0.40;;;11.50;99.90;;;;;;5092671;28;20421;-58
2021/04/10 05:08:14;;;;;;;0.70;0.20;;;11.50;99.90;;;;;;5093542;28;20475;-57
2021/04/10 05:10:40;;;;;;;0.50;0.30;;;11.30;99.90;;;;;;5093246;28;20523;-56
2021/04/10 05:13:07;;;;;;;1.60;0.30;;;11.20;99.90;;;;;;5093509;28;20425;-57
2021/04/10 05:15:33;;;;;;;1.80;0.30;;;11.10;99.90;;;;;;5092996;28;20500;-56
2021/04/10 05:18:00;;;;;;;0.60;0.30;;;11.00;99.90;;;;;;5092722;28;20446;-57
2021/04/10 05:20:26;;;;;;;1.63;0.30;;;10.90;99.90;;;;;;5092325;28;20444;-57
2021/04/10 05:22:53;;;;;;;0.93;0.30;;;10.90;99.90;;;;;;5093252;28;20496;-56
2021/04/10 05:25:20;;;;;;;0.70;0.40;;;10.90;99.90;;;;;;5092596;28;20422;-57
2021/04/10 05:27:48;;;;;;;0.70;0.30;;;10.80;99.90;;;;;;5094582;28;20927;-54
2021/04/10 05:30:15;;;;;;;0.50;0.30;;;10.80;99.90;;;;;;5092332;28;20678;-55
2021/04/10 05:32:41;;;;;;;0.80;0.30;;;10.90;99.90;;;;;;5094386;28;20433;-57
2021/04/10 05:35:09;;;;;;;0.80;0.40;;;10.90;99.90;;;;;;5094000;28;20932;-57
2021/04/10 05:37:35;;;;;;;0.77;0.30;;;10.90;99.90;;;;;;5083290;28;20473;-57
2021/04/10 05:40:02;;;;;;;2.00;0.40;;;10.90;99.90;;;;;;5094468;28;20489;-55
2021/04/10 05:42:29;;;;;;;1.60;0.30;;;10.90;99.90;;;;;;5094248;28;20425;-58
2021/04/10 05:44:56;;;;;;;0.50;0.30;;;10.90;99.90;;;;;;5093823;28;20446;-57
2021/04/10 05:47:22;;;;;;;0.90;0.30;;;10.90;99.90;;;;;;5094330;28;20445;-58
2021/04/10 05:49:49;;;;;;;0.60;0.30;;;10.90;99.90;;;;;;5093470;28;20571;-58
2021/04/10 05:52:15;;;;;;;1.35;0.30;;;11.00;99.90;;;;;;5093740;28;20436;-58
2021/04/10 05:54:42;;;;;;;0.80;0.30;;;11.00;99.90;;;;;;5094726;28;20827;-59
2021/04/10 05:57:08;;;;;;;1.00;0.30;;;11.10;99.90;;;;;;5094073;28;20452;-59
2021/04/10 05:59:35;;;;;;;0.40;0.30;;;11.10;99.90;;;;;;5094479;28;20729;-59
2021/04/10 06:02:05;;;;;;;0.60;0.30;;;11.10;99.90;;;;;;5093462;28;20461;-58
2021/04/10 06:04:32;;;;;;;0.50;0.20;;;11.10;99.90;;;;;;5093025;28;20429;-59
2021/04/10 06:06:58;;;;;;;0.60;0.30;;;11.20;99.90;;;;;;5092595;28;20464;-59
2021/04/10 06:09:25;;;;;;;0.60;0.30;;;11.20;99.90;;;;;;5092855;28;20485;-58
2021/04/10 06:11:51;;;;;;;0.90;0.30;;;11.20;99.90;;;;;;5092736;28;20430;-58
2021/04/10 06:14:22;;;;;;;0.83;0.20;;;11.20;99.90;;;;;;5093361;28;20517;-59
2021/04/10 06:16:49;;;;;;;0.70;0.30;;;11.20;99.90;;;;;;5092841;28;20783;-55
2021/04/10 06:19:15;;;;;;;0.70;0.30;;;11.20;99.90;;;;;;5093046;28;20528;-58
2021/04/10 06:21:42;;;;;;;1.02;0.30;;;11.30;99.90;;;;;;5093834;28;20433;-58
2021/04/10 06:24:09;;;;;;;0.60;0.30;;;11.40;99.90;;;;;;5094067;28;20454;-57
2021/04/10 06:26:36;;;;;;;0.60;0.30;;;11.40;99.90;;;;;;5093122;28;20745;-58
2021/04/10 06:29:02;;;;;;;0.50;0.30;;;11.40;99.90;;;;;;5093221;28;20607;-58
2021/04/10 06:31:29;;;;;;;1.33;0.30;;;11.40;99.90;;;;;;5095082;28;20429;-58
2021/04/10 06:33:56;;;;;;;0.40;0.30;;;11.40;99.90;;;;;;5097401;28;20441;-58
2021/04/10 06:36:25;;;;;;;0.52;0.25;;;11.50;99.90;;;;;;5096745;28;20890;-58
2021/04/10 06:38:51;;;;;;;0.63;0.30;;;11.50;99.90;;;;;;5097242;28;20422;-58
2021/04/10 06:41:18;;;;;;;3.10;1.20;;;11.60;99.90;;;;;;5096432;28;20469;-58
2021/04/10 06:43:44;;;;;;;1.15;0.40;;;11.70;99.90;;;;;;5096625;28;20450;-58
2021/04/10 06:46:11;;;;;;;1.50;0.30;;;11.70;99.90;;;;;;5095181;28;20845;-59
2021/04/10 06:48:39;;;;;;;1.00;0.30;;;11.70;99.90;;;;;;5094659;28;20511;-56
2021/04/10 06:51:08;;;;;;;1.90;0.30;;;11.70;99.90;;;;;;5094185;28;20469;-57
2021/04/10 06:53:43;;;;;;;1.70;0.30;;;11.70;99.90;;;;;;5095162;28;20849;-56
2021/04/10 06:56:12;;;;;;;0.70;0.30;;;11.70;99.90;;;;;;5094472;28;20469;-57
2021/04/10 06:58:47;;;;;;;0.50;0.30;;;11.70;99.90;;;;;;5094068;28;20437;-58
2021/04/10 07:01:16;;;;;;;0.60;0.30;;;11.70;99.90;;;;;;5074891;28;20813;-56
2021/04/10 07:03:43;;;;;;;0.60;0.30;;;11.70;99.90;;;;;;5089404;28;20501;-55
2021/04/10 07:06:11;;;;;;;0.60;0.40;;;11.60;99.90;;;;;;5095744;28;20425;-56
2021/04/10 07:08:38;;;;;;;0.90;0.35;;;11.50;99.90;;;;;;5095633;28;20452;-54
2021/04/10 07:11:05;;;;;;;1.02;0.30;;;11.50;99.90;;;;;;5074618;28;20458;-49
2021/04/10 07:13:32;;;;;;;0.60;0.30;;;11.40;99.90;;;;;;5074977;28;20442;-51
2021/04/10 07:15:59;;;;;;;0.60;0.40;;;11.40;99.90;;;;;;5094890;28;20465;-51
2021/04/10 07:18:28;;;;;;;0.60;0.30;;;11.40;99.90;;;;;;5094346;28;20425;-50
2021/04/10 07:21:14;;;;;;;1.00;0.40;;;11.40;99.90;;;;;;5091854;28;20433;-53
2021/04/10 07:23:44;;;;;;;1.00;0.30;;;11.40;99.90;;;;;;5086995;28;20414;-55
2021/04/10 07:26:11;;;;;;;0.67;0.30;;;11.50;99.90;;;;;;5095099;28;20472;-54
2021/04/10 07:28:37;;;;;;;3.03;0.60;;;11.40;99.90;;;;;;5094113;28;20917;-55
2021/04/10 07:31:05;;;;;;;0.90;0.30;;;11.50;99.90;;;;;;5095368;28;20500;-56
2021/04/10 07:33:33;;;;;;;0.60;0.30;;;11.50;99.90;;;;;;5094998;28;20537;-56
2021/04/10 07:36:02;;;;;;;1.30;0.30;;;11.50;99.90;;;;;;5095684;28;20459;-55
2021/04/10 07:38:31;;;;;;;1.10;0.30;;;11.60;99.90;;;;;;5095105;28;20442;-53
2021/04/10 07:40:59;;;;;;;0.95;0.40;;;11.60;99.90;;;;;;5095480;28;20893;-54
2021/04/10 07:43:28;;;;;;;0.60;0.30;;;11.70;99.90;;;;;;5095182;28;20454;-55
2021/04/10 07:46:14;;;;;;;0.67;0.30;;;11.60;99.90;;;;;;5094489;28;20514;-50
2021/04/10 07:48:58;;;;;;;0.80;0.30;;;11.70;99.90;;;;;;5093292;28;20524;-54
2021/04/10 07:51:27;;;;;;;1.38;0.30;;;11.70;99.90;;;;;;5094736;28;20479;-51
2021/04/10 07:53:54;;;;;;;0.52;0.30;;;11.70;99.90;;;;;;5094892;28;20426;-56
2021/04/10 07:56:21;;;;;;;0.50;0.30;;;11.70;99.90;;;;;;5095656;28;20461;-54
2021/04/10 07:58:49;;;;;;;0.50;0.30;;;11.80;99.90;;;;;;5093608;28;20422;-55
2021/04/10 08:01:16;;;;;;;1.17;0.30;;;11.80;99.90;;;;;;5094745;28;20465;-54
2021/04/10 08:03:47;;;;;;;0.47;0.20;;;11.60;99.90;;;;;;5093992;28;20437;-54
2021/04/10 08:06:20;;;;;;;0.40;0.22;;;11.60;99.90;;;;;;5094474;28;20469;-54
2021/04/10 08:08:52;;;;;;;1.30;0.30;;;11.60;99.90;;;;;;5094677;28;20826;-52
2021/04/10 08:11:30;;;;;;;0.90;0.30;;;11.50;99.90;;;;;;5093764;28;20464;-53
2021/04/10 08:13:58;;;;;;;0.60;0.30;;;11.40;99.90;;;;;;5094087;28;20509;-52
2021/04/10 08:16:25;;;;;;;0.77;0.30;;;11.40;99.90;;;;;;5094769;28;20491;-55
2021/04/10 08:18:54;;;;;;;0.50;0.30;;;11.20;99.90;;;;;;5093498;28;20944;-51
2021/04/10 08:21:22;;;;;;;0.80;0.30;;;11.10;99.90;;;;;;5094717;28;20487;-54
2021/04/10 08:23:49;;;;;;;0.47;0.20;;;11.10;99.90;;;;;;5094364;28;20445;-54
2021/04/10 08:26:16;;;;;;;0.50;0.30;;;11.10;99.90;;;;;;5095298;28;20461;-56
2021/04/10 08:28:44;;;;;;;0.90;0.30;;;11.20;99.90;;;;;;5092692;28;20545;-56
2021/04/10 08:31:10;;;;;;;0.90;0.30;;;11.20;99.90;;;;;;5094837;28;20426;-56
2021/04/10 08:33:37;;;;;;;0.60;0.30;;;11.30;99.90;;;;;;5092985;28;20422;-53
2021/04/10 08:36:07;;;;;;;0.50;0.30;;;11.30;99.90;;;;;;5094482;28;20453;-51
2021/04/10 08:38:34;;;;;;;0.60;0.30;;;11.40;99.90;;;;;;5093051;28;20461;-55
2021/04/10 08:41:04;;;;;;;0.50;0.30;;;11.30;99.90;;;;;;5094416;28;20441;-58
2021/04/10 08:43:32;;;;;;;0.60;0.30;;;11.40;99.90;;;;;;5092745;28;20434;-53
2021/04/10 08:46:00;;;;;;;1.70;0.40;;;11.40;99.90;;;;;;5094513;28;20429;-56
2021/04/10 08:48:28;;;;;;;0.90;0.50;;;11.40;99.90;;;;;;5093540;28;20437;-55
2021/04/10 08:50:57;;;;;;;0.70;0.40;;;11.50;99.90;;;;;;5092882;28;20849;-53
2021/04/10 08:53:26;;;;;;;0.60;0.30;;;11.60;99.90;;;;;;5093050;28;20554;-55
2021/04/10 08:55:54;;;;;;;0.70;0.30;;;11.60;99.90;;;;;;5092520;28;20886;-55
2021/04/10 08:58:23;;;;;;;0.50;0.30;;;11.60;99.90;;;;;;5093068;28;20418;-57
2021/04/10 09:00:57;;;;;;;0.70;0.30;;;11.80;99.90;;;;;;5093565;28;20464;-57
2021/04/10 09:03:52;;;;;;;3.10;0.30;;;11.80;99.90;;;;;;5089350;28;20453;-54
2021/04/10 09:06:48;;;;;;;0.60;0.30;;;11.80;99.90;;;;;;5091871;28;20432;-56
2021/04/10 09:09:31;;;;;;;1.10;0.30;;;11.70;99.90;;;;;;5088628;28;20441;-54
2021/04/10 09:12:20;;;;;;;0.80;0.20;;;11.90;99.90;;;;;;5093337;28;20430;-53
2021/04/10 09:14:48;;;;;;;0.40;0.20;;;12.00;99.90;;;;;;5093975;28;20461;-55
2021/04/10 09:17:14;;;;;;;0.50;0.30;;;11.90;99.90;;;;;;5093720;28;20800;-54
2021/04/10 09:19:42;;;;;;;0.60;0.30;;;11.90;99.90;;;;;;5091963;28;20513;-56
2021/04/10 09:22:15;;;;;;;0.40;0.20;;;11.90;99.90;;;;;;5093735;28;20438;-56
2021/04/10 09:24:44;;;;;;;0.60;0.30;;;12.10;99.90;;;;;;5092871;28;20888;-54
2021/04/10 09:27:18;;;;;;;1.38;0.30;;;12.10;99.90;;;;;;5093758;28;20861;-52
2021/04/10 09:29:47;;;;;;;0.60;0.30;;;12.00;99.90;;;;;;5093896;28;20462;-53
2021/04/10 09:32:27;;;;;;;0.60;0.30;;;12.10;99.90;;;;;;5088333;28;20776;-53
2021/04/10 09:34:59;;;;;;;1.00;0.30;;;12.10;99.90;;;;;;5077894;28;20429;-55
2021/04/10 09:38:01;;;;;;;0.50;0.20;;;12.20;99.90;;;;;;5091118;28;20426;-56
2021/04/10 09:40:50;;;;;;;0.50;0.20;;;12.20;99.90;;;;;;5090841;28;20717;-56
2021/04/10 09:43:22;;;;;;;0.70;0.30;;;12.20;99.90;;;;;;5090708;28;20513;-55
2021/04/10 09:45:49;;;;;;;0.77;0.20;;;12.20;99.90;;;;;;5091909;28;20413;-58
2021/04/10 09:48:21;;;;;;;0.70;0.20;;;12.30;99.90;;;;;;5090799;28;20437;-58
2021/04/10 09:51:13;;;;;;;0.40;0.20;;;12.30;99.90;;;;;;5088885;28;20422;-58
2021/04/10 09:53:40;;;;;;;0.47;0.20;;;12.40;99.90;;;;;;5086170;28;20426;-58
2021/04/10 09:56:12;;;;;;;0.50;0.20;;;12.50;99.90;;;;;;5089549;28;20845;-58
2021/04/10 09:58:50;;;;;;;0.50;0.30;;;12.60;99.90;;;;;;5086692;28;20518;-57
2021/04/10 10:01:19;;;;;;;1.20;0.20;;;12.70;99.90;;;;;;5088144;28;20745;-55
2021/04/10 10:03:47;;;;;;;0.50;0.30;;;12.80;99.90;;;;;;5082575;28;20505;-57
2021/04/10 10:06:27;;;;;;;0.70;0.23;;;12.90;99.90;;;;;;5086343;28;20799;-56
2021/04/10 10:08:53;;;;;;;0.43;0.30;;;13.00;99.90;;;;;;5093048;28;20465;-56
2021/04/10 10:11:21;;;;;;;1.60;0.30;;;13.10;99.90;;;;;;5083202;28;20455;-57
2021/04/10 10:13:47;;;;;;;0.30;0.20;;;13.10;99.90;;;;;;5077904;28;20742;-56
2021/04/10 10:16:14;;;;;;;0.50;0.30;;;13.00;99.90;;;;;;5083213;28;20440;-57
2021/04/10 10:18:42;;;;;;;0.80;0.20;;;13.00;99.90;;;;;;5089590;28;20421;-58
2021/04/10 10:21:11;;;;;;;1.30;0.20;;;13.00;99.90;;;;;;5094826;28;20442;-60
2021/04/10 10:23:41;;;;;;;0.50;0.20;;;13.00;99.90;;;;;;5092852;28;20524;-59
2021/04/10 10:26:12;;;;;;;0.43;0.20;;;13.10;99.90;;;;;;5093975;28;20483;-59
2021/04/10 10:28:41;;;;;;;0.40;0.20;;;13.10;99.90;;;;;;5093553;28;20426;-59
2021/04/10 10:31:10;;;;;;;0.50;0.20;;;13.10;99.90;;;;;;5093168;28;20430;-59
2021/04/10 10:33:37;;;;;;;0.50;0.30;;;13.10;99.90;;;;;;5094024;28;20737;-59
2021/04/10 10:36:04;;;;;;;0.40;0.20;;;13.20;99.90;;;;;;5091742;28;20436;-59
2021/04/10 10:38:33;;;;;;;0.90;0.20;;;13.30;99.90;;;;;;5094774;28;20979;-60
2021/04/10 10:41:01;;;;;;;0.40;0.20;;;13.30;99.90;;;;;;5089820;28;20430;-59
2021/04/10 10:43:27;;;;;;;0.40;0.20;;;13.30;99.90;;;;;;5092358;28;20999;-59
2021/04/10 10:45:55;;;;;;;0.40;0.20;;;13.40;99.90;;;;;;5090225;28;20483;-59
2021/04/10 10:48:25;;;;;;;0.40;0.20;;;13.50;99.90;;;;;;5092722;28;20922;-59
2021/04/10 10:50:53;;;;;;;0.70;0.20;;;13.50;99.90;;;;;;5092689;28;21050;-59
2021/04/10 10:53:21;;;;;;;0.40;0.20;;;13.60;99.90;;;;;;5087529;28;20906;-59
2021/04/10 10:56:07;;;;;;;0.60;0.30;;;13.70;99.90;;;;;;5090778;28;20457;-59
2021/04/10 10:58:36;;;;;;;0.40;0.20;;;13.70;99.90;;;;;;5093859;28;20521;-59
2021/04/10 11:01:03;;;;;;;0.70;0.20;;;13.80;99.90;;;;;;5084489;28;20534;-60
2021/04/10 11:03:30;;;;;;;1.40;0.20;;;13.90;99.90;;;;;;5083103;28;20434;-58
2021/04/10 11:05:57;;;;;;;0.50;0.30;;;14.00;99.90;;;;;;5086425;28;20962;-58
2021/04/10 11:08:26;;;;;;;0.40;0.20;;;14.00;99.90;;;;;;5082565;28;20857;-59
2021/04/10 11:10:53;;;;;;;0.40;0.28;;;14.10;99.90;;;;;;5090792;28;20445;-58
2021/04/10 11:13:23;;;;;;;1.60;0.30;;;14.20;99.90;;;;;;5086851;28;20429;-60
2021/04/10 11:15:50;;;;;;;0.40;0.20;;;14.10;99.90;;;;;;5090948;28;20786;-59
2021/04/10 11:18:30;;;;;;;1.10;0.20;;;13.90;99.90;;;;;;5087056;28;20435;-59
2021/04/10 11:21:16;;;;;;;0.80;0.20;;;13.90;99.90;;;;;;5084215;28;20846;-59
2021/04/10 11:24:11;;;;;;;0.40;0.20;;;14.20;99.90;;;;;;5091586;28;20520;-59
2021/04/10 11:26:52;;;;;;;0.35;0.20;;;14.20;99.90;;;;;;5086742;28;20439;-61
2021/04/10 11:29:31;;;;;;;0.50;0.30;;;14.30;99.90;;;;;;5091565;28;21368;-59
2021/04/10 11:32:20;;;;;;;0.90;0.40;;;14.30;99.90;;;;;;5089092;28;20436;-59
2021/04/10 11:34:55;;;;;;;0.50;0.20;;;14.30;99.90;;;;;;5086346;28;20989;-56
2021/04/10 11:37:23;;;;;;;2.30;0.30;;;14.30;99.90;;;;;;5086235;28;20884;-60
2021/04/10 11:39:56;;;;;;;3.35;0.35;;;14.40;99.90;;;;;;5088040;28;20485;-58
2021/04/10 11:42:33;;;;;;;3.70;0.32;;;14.60;99.90;;;;;;5086313;28;20442;-58
2021/04/10 11:45:01;;;;;;;0.45;0.20;;;14.60;99.90;;;;;;5092045;28;20800;-58
2021/04/10 11:47:30;;;;;;;1.10;0.30;;;14.80;99.90;;;;;;5091944;28;20502;-58
2021/04/10 11:50:10;;;;;;;1.60;0.20;;;15.00;99.90;;;;;;5092444;28;20461;-57
2021/04/10 11:52:37;;;;;;;0.70;0.20;;;15.30;99.90;;;;;;5093172;28;20434;-58
2021/04/10 11:55:07;;;;;;;0.30;0.20;;;15.50;99.90;;;;;;5094975;28;20781;-57
2021/04/10 11:57:35;;;;;;;2.30;0.20;;;15.10;99.90;;;;;;5093564;28;20796;-59
2021/04/10 12:00:06;;;;;;;0.90;0.30;;;15.20;99.90;;;;;;5093212;28;20421;-58
2021/04/10 12:02:34;;;;;;;0.50;0.22;;;15.10;99.90;;;;;;5094229;28;20469;-56
2021/04/10 12:05:22;;;;;;;0.50;0.30;;;15.30;99.90;;;;;;5094820;28;20497;-58
2021/04/10 12:08:09;;;;;;;0.32;0.20;;;15.60;99.90;;;;;;5076971;28;20458;-58
2021/04/10 12:10:37;;;;;;;0.50;0.25;;;15.90;99.90;;;;;;5094372;28;20516;-58
2021/04/10 12:13:04;;;;;;;0.63;0.20;;;16.10;99.90;;;;;;5092785;28;20465;-58
2021/04/10 12:15:32;;;;;;;0.40;0.20;;;16.30;99.90;;;;;;5090083;28;21095;-58
2021/04/10 12:17:59;;;;;;;0.60;0.20;;;16.10;99.90;;;;;;5073874;28;20485;-58
2021/04/10 12:20:26;;;;;;;0.40;0.20;;;16.10;99.90;;;;;;5075689;28;20435;-58
2021/04/10 12:22:53;;;;;;;0.40;0.20;;;15.90;99.90;;;;;;5092439;28;20532;-59
2021/04/10 12:25:19;;;;;;;0.70;0.20;;;16.00;99.90;;;;;;5093390;28;20858;-58
2021/04/10 12:27:46;;;;;;;0.50;0.30;;;16.10;99.90;;;;;;5092258;28;20440;-60
2021/04/10 12:30:14;;;;;;;0.63;0.20;;;16.10;99.90;;;;;;5092081;28;20422;-59
2021/04/10 12:32:44;;;;;;;1.50;0.20;;;16.30;99.90;;;;;;5091699;28;20824;-58
2021/04/10 12:35:12;;;;;;;0.32;0.20;;;16.40;99.90;;;;;;5093600;28;20475;-58
2021/04/10 12:37:39;;;;;;;0.40;0.20;;;16.50;99.90;;;;;;5094413;28;20454;-58
2021/04/10 12:40:07;;;;;;;0.60;0.20;;;16.90;99.90;;;;;;5091057;28;20849;-58
2021/04/10 12:42:34;;;;;;;0.70;0.20;;;16.80;99.90;;;;;;5089154;28;20537;-60
2021/04/10 12:45:01;;;;;;;0.50;0.20;;;17.10;99.90;;;;;;5089569;28;20454;-58
2021/04/10 12:47:27;;;;;;;1.00;0.30;;;17.60;99.90;;;;;;5087081;28;20440;-61
2021/04/10 12:49:55;;;;;;;0.47;0.20;;;18.20;99.90;;;;;;5088911;28;20512;-60
2021/04/10 12:52:22;;;;;;;1.20;0.20;;;18.30;99.90;;;;;;5082244;28;20437;-58
2021/04/10 12:54:49;;;;;;;0.43;0.20;;;18.40;99.90;;;;;;5087100;28;20888;-59
2021/04/10 12:57:16;;;;;;;0.70;0.20;;;18.60;99.90;;;;;;5086315;28;20431;-61
2021/04/10 12:59:43;;;;;;;0.40;0.20;;;19.20;99.90;;;;;;5090990;28;20438;-59